Time;durP1;ratioP1;P1;durP2;ratioP2;P2;SDS_P1;SDS_P2;PMS_P1;PMS_P2;Temp;Humidity;BMP_temperature;BMP_pressure;BME280_temperature;BME280_humidity;BME280_pressure;Samples;Min_cycle;Max_cycle;Signal;HPM_P1;HPM_P2
2021/07/22 00:00:09;;;;;;;6.30;5.70;;;;;;;18.63;76.29;99109.69;4973498;28;102516;-68
2021/07/22 00:02:49;;;;;;;;;;;;;;;;;;;;;
2021/07/22 03:27:32;;;;;;;7.47;6.75;;;;;;;16.03;87.71;99103.03;4994096;22;130580;-64
2021/07/22 03:30:01;;;;;;;7.80;7.00;;;;;;;16.03;87.47;99087.03;4935942;28;105951;-60
2021/07/22 03:32:36;;;;;;;6.55;5.97;;;;;;;16.16;87.04;99090.31;4959571;28;102669;-61
2021/07/22 03:35:05;;;;;;;5.95;5.28;;;;;;;16.23;86.38;99094.09;4961126;28;102688;-61
2021/07/22 03:37:37;;;;;;;6.88;5.50;;;;;;;16.33;85.44;99088.81;4939754;28;103246;-61
2021/07/22 03:40:13;;;;;;;7.68;5.60;;;;;;;16.39;84.98;99094.44;4958968;28;103243;-65
2021/07/22 03:42:43;;;;;;;7.20;6.50;;;;;;;16.31;86.01;99091.59;4959851;28;103385;-65
2021/07/22 03:45:17;;;;;;;7.30;6.57;;;;;;;16.32;85.17;99085.28;4942871;28;102690;-61
2021/07/22 03:47:50;;;;;;;5.40;4.90;;;;;;;16.39;84.65;99089.13;4942596;28;104607;-61
2021/07/22 03:50:18;;;;;;;9.00;7.50;;;;;;;16.33;85.07;99094.16;4939899;28;104270;-65
2021/07/22 03:52:53;;;;;;;6.72;6.13;;;;;;;16.38;84.54;99092.75;4954021;28;102696;-65
2021/07/22 03:55:25;;;;;;;11.93;7.45;;;;;;;16.27;86.05;99111.53;4941326;28;103930;-62
2021/07/22 03:58:30;;;;;;;9.25;7.47;;;;;;;16.31;85.41;99107.59;4939435;28;104475;-63
2021/07/22 04:01:13;;;;;;;6.83;5.90;;;;;;;16.40;84.57;99104.13;4957595;28;103105;-63
2021/07/22 04:03:41;;;;;;;7.72;6.78;;;;;;;16.48;84.77;99109.59;4962730;28;102626;-63
2021/07/22 04:06:13;;;;;;;7.70;7.00;;;;;;;16.39;85.31;99105.13;4940282;28;102726;-62
2021/07/22 04:08:42;;;;;;;8.80;7.05;;;;;;;16.06;87.88;99108.94;4966062;28;103362;-63
2021/07/22 04:11:30;;;;;;;7.25;6.63;;;;;;;16.13;86.98;99098.59;4960591;28;103246;-63
2021/07/22 04:14:18;;;;;;;8.23;6.28;;;;;;;16.30;85.83;99097.09;4966649;28;102587;-62
2021/07/22 04:17:19;;;;;;;9.95;8.13;;;;;;;16.34;85.64;99101.13;4932291;28;102767;-63
2021/07/22 04:20:07;;;;;;;8.65;7.85;;;;;;;16.05;87.30;99104.59;4941135;28;103460;-64
2021/07/22 04:22:59;;;;;;;7.18;6.43;;;;;;;16.18;87.37;99101.69;4939716;28;103222;-60
2021/07/22 04:25:53;;;;;;;6.03;5.50;;;;;;;16.34;86.38;99107.31;4951989;28;102750;-62
2021/07/22 04:28:30;;;;;;;8.35;6.45;;;;;;;16.43;85.90;99098.50;4947530;28;102829;-62
2021/07/22 04:30:59;;;;;;;5.32;4.82;;;;;;;16.46;86.30;99100.91;4924878;28;105562;-61
2021/07/22 04:33:59;;;;;;;8.15;6.32;;;;;;;16.57;85.43;99107.97;4920097;28;103470;-62
2021/07/22 04:36:37;;;;;;;6.95;5.88;;;;;;;16.59;85.43;99101.50;4938881;28;102716;-66
2021/07/22 04:39:24;;;;;;;6.45;5.88;;;;;;;16.56;85.62;99104.44;4931105;28;103024;-61
2021/07/22 04:42:05;;;;;;;6.38;5.25;;;;;;;16.64;85.30;99103.78;4926224;28;103577;-61
2021/07/22 04:45:13;;;;;;;7.22;6.55;;;;;;;16.69;84.99;99107.69;4919094;28;103125;-62
2021/07/22 04:48:04;;;;;;;5.03;4.57;;;;;;;16.78;84.32;99106.88;4935136;28;102818;-62
2021/07/22 04:50:51;;;;;;;6.65;6.05;;;;;;;16.76;85.44;99107.97;4937037;28;102958;-62
2021/07/22 04:53:35;;;;;;;5.80;5.25;;;;;;;16.90;84.29;99098.72;4921820;28;103302;-62
2021/07/22 04:56:05;;;;;;;7.20;5.32;;;;;;;17.04;83.47;99106.31;4921078;28;103304;-63
2021/07/22 04:58:36;;;;;;;5.30;4.80;;;;;;;17.14;83.04;99109.78;4930558;28;103840;-62
2021/07/22 05:01:11;;;;;;;6.90;6.20;;;;;;;17.15;83.17;99109.63;4921551;28;102770;-65
2021/07/22 05:03:44;;;;;;;4.80;4.40;;;;;;;17.26;82.41;99106.00;4921771;28;103361;-66
2021/07/22 05:06:12;;;;;;;6.82;6.13;;;;;;;17.36;82.00;99106.81;4939960;28;103350;-66
2021/07/22 05:09:01;;;;;;;8.80;6.97;;;;;;;17.41;82.78;99107.22;4934627;28;102677;-60
2021/07/22 05:12:08;;;;;;;11.57;8.70;;;;;;;17.32;83.69;99114.25;4863270;28;103066;-63
2021/07/22 05:14:45;;;;;;;12.70;11.20;;;;;;;16.74;87.38;99112.59;4862363;28;109537;-62
2021/07/22 05:17:32;;;;;;;10.98;9.88;;;;;;;16.53;88.80;99115.38;4894246;28;106698;-63
2021/07/22 05:20:25;;;;;;;12.50;11.10;;;;;;;16.55;88.99;99113.44;4908461;28;102889;-63
2021/07/22 05:23:03;;;;;;;16.20;11.57;;;;;;;16.70;87.51;99114.69;4938120;28;103616;-63
2021/07/22 05:25:57;;;;;;;12.07;10.88;;;;;;;16.20;90.77;99121.88;4936141;28;103165;-62
2021/07/22 05:28:35;;;;;;;16.13;12.27;;;;;;;16.35;91.32;99125.03;4949787;28;103104;-62
2021/07/22 05:31:26;;;;;;;13.93;11.68;;;;;;;16.25;91.71;99114.31;4943212;28;103368;-63
2021/07/22 05:34:04;;;;;;;11.38;10.23;;;;;;;16.59;90.99;99122.84;4927141;28;103082;-70
2021/07/22 05:37:04;;;;;;;13.65;12.23;;;;;;;16.42;90.90;99120.81;4942929;28;103162;-70
2021/07/22 05:39:41;;;;;;;15.93;12.05;;;;;;;16.59;90.62;99124.69;4966272;28;103246;-63
2021/07/22 05:42:09;;;;;;;19.88;12.05;;;;;;;16.99;88.14;99124.53;4957662;28;102583;-63
2021/07/22 05:44:37;;;;;;;13.35;11.95;;;;;;;17.02;87.89;99121.59;4965546;28;102731;-63
2021/07/22 05:47:06;;;;;;;15.57;11.25;;;;;;;17.11;86.82;99129.63;4961267;28;103772;-62
2021/07/22 05:49:34;;;;;;;12.95;11.68;;;;;;;17.00;86.56;99128.91;4955495;28;103124;-69
2021/07/22 05:52:06;;;;;;;11.40;9.48;;;;;;;17.48;85.17;99129.72;4957607;28;103075;-69
2021/07/22 05:54:34;;;;;;;10.65;9.50;;;;;;;17.47;85.20;99124.50;4938261;28;102979;-69
2021/07/22 05:57:01;;;;;;;10.45;8.85;;;;;;;17.64;84.83;99124.63;4941231;28;103264;-62
2021/07/22 05:59:29;;;;;;;8.88;6.82;;;;;;;18.01;83.23;99124.63;4928116;28;104276;-69
2021/07/22 06:01:57;;;;;;;18.33;8.48;;;;;;;18.31;82.79;99124.34;4958777;28;102755;-69
2021/07/22 06:04:26;;;;;;;13.10;7.93;;;;;;;18.53;81.01;99125.78;4959038;28;102516;-70
2021/07/22 06:06:54;;;;;;;11.43;8.30;;;;;;;18.48;79.40;99126.25;4967738;28;103398;-69
2021/07/22 06:09:23;;;;;;;8.55;7.65;;;;;;;18.61;79.35;99119.69;4961913;28;103285;-69
2021/07/22 06:11:51;;;;;;;12.43;9.75;;;;;;;18.71;78.67;99123.97;4957734;28;102622;-69
2021/07/22 06:14:19;;;;;;;9.73;8.80;;;;;;;18.92;79.19;99127.19;4963922;28;103060;-62
2021/07/22 06:16:47;;;;;;;11.80;10.52;;;;;;;18.50;78.49;99137.63;4956721;28;103377;-69
2021/07/22 06:19:15;;;;;;;15.40;11.10;;;;;;;18.11;80.90;99135.28;4940913;28;103848;-62
2021/07/22 06:21:43;;;;;;;10.15;9.15;;;;;;;18.34;79.76;99133.91;4959811;28;102864;-62
2021/07/22 06:24:11;;;;;;;11.63;8.73;;;;;;;18.63;79.52;99129.25;4953665;28;102694;-62
2021/07/22 06:26:41;;;;;;;10.18;9.10;;;;;;;18.90;78.38;99129.19;4945562;28;104042;-62
2021/07/22 06:29:09;;;;;;;10.52;9.02;;;;;;;19.14;76.96;99131.25;4946031;28;105622;-62
2021/07/22 06:31:38;;;;;;;12.35;9.55;;;;;;;19.34;77.13;99130.06;4955730;28;102576;-62
2021/07/22 06:34:06;;;;;;;9.85;7.80;;;;;;;19.62;75.46;99131.63;4944867;28;102775;-63
2021/07/22 06:36:34;;;;;;;14.30;10.30;;;;;;;19.78;74.17;99130.91;4954345;28;103546;-62
2021/07/22 06:39:02;;;;;;;9.85;8.68;;;;;;;19.93;73.55;99123.94;4962743;28;103254;-62
2021/07/22 06:41:30;;;;;;;9.35;7.65;;;;;;;19.66;74.31;99124.97;4971437;28;102626;-62
2021/07/22 06:44:01;;;;;;;9.15;8.25;;;;;;;19.71;73.61;99129.84;4969647;28;102659;-62
2021/07/22 06:46:29;;;;;;;9.77;7.60;;;;;;;19.89;72.37;99125.28;4953719;28;103518;-69
2021/07/22 06:48:59;;;;;;;9.68;7.22;;;;;;;20.40;71.50;99113.63;4968391;28;103156;-69
2021/07/22 06:51:28;;;;;;;8.02;7.18;;;;;;;20.71;71.35;99124.63;4969889;28;102566;-69
2021/07/22 06:53:56;;;;;;;7.07;6.07;;;;;;;20.91;70.78;99123.31;4948216;28;103025;-69
2021/07/22 06:56:25;;;;;;;9.95;7.65;;;;;;;20.60;71.93;99116.88;4965100;28;104276;-68
2021/07/22 06:58:53;;;;;;;7.72;7.00;;;;;;;21.16;70.82;99118.84;4968357;28;103905;-68
2021/07/22 07:01:23;;;;;;;7.00;5.93;;;;;;;21.42;69.00;99122.16;4945088;28;102829;-62
2021/07/22 07:03:51;;;;;;;9.32;8.35;;;;;;;20.57;69.88;99117.19;4972561;28;103063;-68
2021/07/22 07:06:19;;;;;;;12.07;9.60;;;;;;;20.36;71.65;99122.16;4968523;28;103558;-63
2021/07/22 07:08:47;;;;;;;8.05;7.13;;;;;;;20.76;70.96;99128.50;4969579;28;103193;-63
2021/07/22 07:11:16;;;;;;;9.02;8.13;;;;;;;20.51;70.70;99128.59;4956520;28;102740;-62
2021/07/22 07:13:44;;;;;;;8.20;7.50;;;;;;;20.83;70.91;99124.13;4952837;28;102764;-63
2021/07/22 07:16:12;;;;;;;7.55;6.72;;;;;;;21.32;69.81;99116.97;4963910;28;103190;-63
2021/07/22 07:18:42;;;;;;;6.20;5.70;;;;;;;21.74;69.40;99113.22;4967845;28;104236;-68
2021/07/22 07:21:15;;;;;;;7.45;6.53;;;;;;;21.93;66.27;99119.09;4963802;28;102964;-68
2021/07/22 07:23:43;;;;;;;10.68;8.48;;;;;;;21.62;64.88;99119.94;4972376;28;102619;-62
2021/07/22 07:26:11;;;;;;;9.90;8.23;;;;;;;21.82;66.42;99118.56;4961157;28;104378;-63
2021/07/22 07:28:40;;;;;;;6.03;5.53;;;;;;;22.22;64.37;99123.88;4932220;28;103241;-63
2021/07/22 07:31:08;;;;;;;6.22;5.72;;;;;;;22.62;62.92;99111.22;4922690;28;102731;-63
2021/07/22 07:33:36;;;;;;;10.35;7.63;;;;;;;21.28;65.29;99104.88;4945403;28;102652;-64
2021/07/22 07:36:06;;;;;;;14.43;8.70;;;;;;;21.07;66.36;99109.94;4941605;28;103441;-64
2021/07/22 07:38:35;;;;;;;9.73;8.05;;;;;;;21.25;66.18;99113.28;4942779;28;103370;-64
2021/07/22 07:41:03;;;;;;;9.82;6.53;;;;;;;22.16;64.20;99107.56;4942514;28;102700;-70
2021/07/22 07:43:31;;;;;;;8.77;7.25;;;;;;;22.61;61.84;99101.44;4939583;28;102720;-65
2021/07/22 07:45:59;;;;;;;8.13;7.22;;;;;;;23.19;62.12;99112.50;4940118;28;103535;-71
2021/07/22 07:48:27;;;;;;;9.55;7.57;;;;;;;23.36;60.92;99102.44;4922931;28;104407;-71
2021/07/22 07:50:55;;;;;;;7.25;6.50;;;;;;;23.70;60.50;99107.38;4941324;28;102752;-70
2021/07/22 07:53:25;;;;;;;7.30;6.40;;;;;;;23.77;59.78;99108.31;4942353;28;102736;-71
2021/07/22 07:55:53;;;;;;;10.77;8.35;;;;;;;22.88;60.53;99103.66;4941118;28;103645;-70
2021/07/22 07:58:21;;;;;;;9.95;8.95;;;;;;;22.23;63.61;99109.38;4928471;28;104608;-73
2021/07/22 08:00:49;;;;;;;10.93;7.47;;;;;;;22.29;64.28;99103.28;4925643;28;103974;-74
2021/07/22 08:03:19;;;;;;;7.43;6.55;;;;;;;23.95;60.14;99095.28;4942022;28;102736;-73
2021/07/22 08:05:48;;;;;;;8.38;5.90;;;;;;;24.72;57.46;99091.09;4942503;28;103364;-74
2021/07/22 08:08:16;;;;;;;9.60;8.60;;;;;;;23.48;57.56;99099.16;4942163;28;103134;-77
2021/07/22 08:10:46;;;;;;;9.82;8.90;;;;;;;23.11;59.32;99099.09;4921770;28;102741;-77
2021/07/22 08:13:14;;;;;;;9.38;8.10;;;;;;;23.70;58.37;99093.88;4944299;28;103044;-77
2021/07/22 08:15:43;;;;;;;8.73;7.78;;;;;;;24.02;57.70;99093.53;4940779;28;103392;-78
2021/07/22 08:18:13;;;;;;;9.85;8.25;;;;;;;23.57;60.06;99094.53;4944027;28;103235;-79
2021/07/22 08:20:41;;;;;;;8.38;7.47;;;;;;;24.37;57.62;99081.13;4941986;28;102791;-70
2021/07/22 08:23:09;;;;;;;9.48;7.70;;;;;;;25.37;55.88;99082.81;4942187;28;104500;-63
2021/07/22 08:25:38;;;;;;;9.35;7.00;;;;;;;25.80;54.82;99083.56;4941860;28;103391;-63
2021/07/22 08:28:12;;;;;;;11.43;7.85;;;;;;;25.13;54.41;99078.66;4942620;28;103196;-63
2021/07/22 08:30:40;;;;;;;9.68;6.85;;;;;;;25.67;54.08;99075.38;4942689;28;102639;-62
2021/07/22 08:33:08;;;;;;;7.35;6.30;;;;;;;26.65;53.33;99080.44;4942206;28;102722;-78
2021/07/22 08:35:36;;;;;;;10.23;8.00;;;;;;;26.19;50.48;99081.09;4933775;28;107356;-77
2021/07/22 08:38:05;;;;;;;9.05;7.45;;;;;;;25.35;54.42;99079.47;4925264;28;103787;-77
2021/07/22 08:40:33;;;;;;;8.32;6.45;;;;;;;27.12;51.16;99074.13;4945780;28;102743;-77
2021/07/22 08:43:04;;;;;;;8.32;7.53;;;;;;;27.60;50.34;99081.00;4944002;28;102774;-62
2021/07/22 08:45:33;;;;;;;9.60;7.28;;;;;;;28.08;48.81;99074.28;4918642;28;106371;-62
2021/07/22 08:48:02;;;;;;;7.90;6.68;;;;;;;28.67;47.80;99070.50;4940124;28;103257;-62
2021/07/22 08:50:30;;;;;;;7.85;6.47;;;;;;;28.68;46.20;99072.16;4946747;28;102950;-63
2021/07/22 08:52:59;;;;;;;7.55;6.47;;;;;;;28.46;49.60;99076.22;4950523;28;103675;-76
2021/07/22 08:55:27;;;;;;;8.00;7.07;;;;;;;28.63;47.61;99072.00;4948785;28;103873;-77
2021/07/22 08:57:57;;;;;;;6.88;6.15;;;;;;;28.86;48.50;99074.16;4943980;28;103157;-62
2021/07/22 09:00:26;;;;;;;8.20;6.63;;;;;;;28.89;46.00;99065.53;4944129;28;102628;-63
2021/07/22 09:02:57;;;;;;;8.38;6.38;;;;;;;29.09;46.26;99072.53;4929423;28;103175;-63
2021/07/22 09:05:28;;;;;;;9.68;6.18;;;;;;;29.74;45.54;99067.59;4944017;28;103503;-63
2021/07/22 09:07:56;;;;;;;8.75;6.68;;;;;;;29.26;46.86;99073.69;4945593;28;103237;-64
2021/07/22 09:10:24;;;;;;;6.45;5.75;;;;;;;28.10;48.12;99066.75;4946116;28;102784;-63
2021/07/22 09:12:54;;;;;;;10.18;6.72;;;;;;;28.39;48.19;99072.69;4924329;28;103194;-63
2021/07/22 09:15:25;;;;;;;6.97;6.35;;;;;;;27.64;49.75;99076.84;4947802;28;103909;-63
2021/07/22 09:18:22;;;;;;;7.22;6.38;;;;;;;28.09;47.81;99077.84;4948014;28;104325;-62
2021/07/22 09:20:51;;;;;;;6.72;5.97;;;;;;;29.65;46.27;99077.09;4926121;28;102663;-63
2021/07/22 09:23:21;;;;;;;8.30;5.43;;;;;;;28.41;46.19;99070.63;4942381;28;102647;-63
2021/07/22 09:25:50;;;;;;;7.00;6.07;;;;;;;28.99;45.30;99066.75;4945493;28;103359;-63
2021/07/22 09:28:20;;;;;;;7.18;5.80;;;;;;;27.37;45.17;99077.88;4946296;28;103410;-63
2021/07/22 09:30:59;;;;;;;6.45;5.85;;;;;;;28.03;44.65;99076.81;4952703;28;102624;-63
2021/07/22 09:33:36;;;;;;;5.97;5.47;;;;;;;27.46;43.08;99076.66;4958614;28;102713;-64
2021/07/22 09:36:05;;;;;;;6.45;5.88;;;;;;;27.07;46.54;99069.31;4921901;28;105039;-62
2021/07/22 09:38:34;;;;;;;7.53;6.75;;;;;;;27.60;46.49;99075.59;4959669;28;103275;-63
2021/07/22 09:41:02;;;;;;;7.40;5.93;;;;;;;28.55;46.32;99069.47;4961616;28;102610;-62
2021/07/22 09:43:38;;;;;;;8.15;5.93;;;;;;;28.63;46.31;99066.56;4956887;28;102719;-62
2021/07/22 09:46:07;;;;;;;7.10;6.50;;;;;;;28.05;45.04;99065.72;4942378;28;104783;-63
2021/07/22 09:48:37;;;;;;;8.45;7.00;;;;;;;26.48;47.54;99069.97;4960496;28;103200;-77
2021/07/22 09:51:06;;;;;;;10.05;6.22;;;;;;;27.05;46.82;99065.97;4961756;28;102802;-77
2021/07/22 09:53:34;;;;;;;6.40;5.80;;;;;;;27.80;46.79;99062.81;4962133;28;102843;-77
2021/07/22 09:56:03;;;;;;;10.63;6.97;;;;;;;27.79;46.57;99063.88;4943394;28;104430;-62
2021/07/22 09:58:32;;;;;;;7.10;6.40;;;;;;;28.14;46.55;99059.00;4960097;28;103296;-78
2021/07/22 10:01:01;;;;;;;7.63;6.40;;;;;;;29.44;42.31;99048.41;4956268;28;102597;-77
2021/07/22 10:03:33;;;;;;;7.43;6.70;;;;;;;28.37;45.00;99045.75;4960404;28;103207;-77
2021/07/22 10:06:10;;;;;;;7.85;6.07;;;;;;;28.69;43.14;99043.91;4959366;28;103323;-63
2021/07/22 10:08:40;;;;;;;6.57;5.50;;;;;;;30.21;41.46;99045.09;4958641;28;103108;-63
2021/07/22 10:11:09;;;;;;;7.05;6.25;;;;;;;28.64;42.83;99047.31;4951147;28;103854;-63
2021/07/22 10:13:39;;;;;;;6.40;5.82;;;;;;;29.87;42.33;99034.81;4945670;28;103366;-78
2021/07/22 10:16:11;;;;;;;10.45;7.28;;;;;;;29.16;43.17;99040.69;4945982;28;104454;-63
2021/07/22 10:18:45;;;;;;;8.55;5.82;;;;;;;28.92;44.07;99033.31;4954078;28;103147;-62
2021/07/22 10:21:15;;;;;;;8.00;5.97;;;;;;;28.36;42.81;99025.06;4961858;28;103109;-78
2021/07/22 10:23:44;;;;;;;8.18;5.97;;;;;;;29.53;42.28;99029.91;4963962;28;102910;-77
2021/07/22 10:26:12;;;;;;;7.63;6.93;;;;;;;27.10;44.73;99036.34;4956917;28;103268;-77
2021/07/22 10:28:42;;;;;;;6.18;5.65;;;;;;;29.33;43.30;99015.66;4965213;28;104335;-78
2021/07/22 10:31:10;;;;;;;10.50;6.47;;;;;;;29.98;43.88;99017.72;4962440;28;102614;-77
2021/07/22 10:33:40;;;;;;;11.00;6.45;;;;;;;29.24;43.96;99018.66;4970652;28;102743;-77
2021/07/22 10:36:09;;;;;;;6.32;5.75;;;;;;;30.41;43.99;99013.00;4970627;28;103275;-65
2021/07/22 10:38:49;;;;;;;7.80;6.40;;;;;;;30.62;40.84;99010.84;4970829;28;103630;-65
2021/07/22 10:41:38;;;;;;;6.30;5.70;;;;;;;30.73;41.68;99016.34;4964142;28;102907;-64
2021/07/22 10:44:08;;;;;;;16.33;7.10;;;;;;;29.33;41.05;99007.50;4970338;28;102662;-65
2021/07/22 10:46:53;;;;;;;6.43;5.35;;;;;;;29.94;42.17;99011.06;4954457;28;103318;-65
2021/07/22 10:49:36;;;;;;;7.63;6.18;;;;;;;30.40;41.37;99000.44;4964833;28;103304;-65
2021/07/22 10:52:05;;;;;;;6.13;5.50;;;;;;;31.27;40.57;99012.53;4959240;28;102657;-65
2021/07/22 10:54:51;;;;;;;8.48;5.32;;;;;;;31.69;39.10;99004.28;4956241;28;102722;-65
2021/07/22 10:57:39;;;;;;;8.88;5.93;;;;;;;31.05;40.47;99003.25;4955616;28;103620;-64
2021/07/22 11:00:11;;;;;;;7.97;6.13;;;;;;;30.44;41.78;99001.66;4959862;28;104285;-65
2021/07/22 11:02:49;;;;;;;6.80;6.03;;;;;;;29.27;42.84;98999.19;4958274;28;102978;-64
2021/07/22 11:05:56;;;;;;;7.13;5.68;;;;;;;30.25;44.31;98994.53;4963801;28;102674;-65
2021/07/22 11:08:26;;;;;;;8.35;6.47;;;;;;;29.61;41.55;98995.06;4875446;28;104860;-64
2021/07/22 11:10:57;;;;;;;7.40;6.28;;;;;;;30.43;41.02;98989.06;4962260;28;103130;-65
2021/07/22 11:13:44;;;;;;;8.82;6.68;;;;;;;29.37;41.00;98992.38;4962500;28;102682;-65
2021/07/22 11:16:20;;;;;;;6.45;5.65;;;;;;;30.51;40.88;98995.28;4961362;28;102879;-65
2021/07/22 11:18:54;;;;;;;5.65;5.13;;;;;;;31.32;39.75;98988.13;4961973;28;104541;-64
2021/07/22 11:21:26;;;;;;;6.60;6.00;;;;;;;30.70;40.46;98983.25;4962198;28;103041;-64
2021/07/22 11:23:56;;;;;;;8.43;6.20;;;;;;;31.73;40.21;98984.44;4963013;28;102867;-65
2021/07/22 11:26:29;;;;;;;7.45;6.15;;;;;;;30.52;40.60;98983.28;4966265;28;103143;-65
2021/07/22 11:29:21;;;;;;;9.35;7.20;;;;;;;28.89;42.07;98979.38;4961419;28;103705;-65
2021/07/22 11:31:51;;;;;;;6.35;5.70;;;;;;;30.53;42.11;98974.06;4959253;28;103218;-65
2021/07/22 11:34:36;;;;;;;7.90;7.15;;;;;;;30.60;40.82;98972.09;4958812;28;102997;-65
2021/07/22 11:37:19;;;;;;;9.18;6.97;;;;;;;30.94;39.66;98971.34;4957956;28;103287;-65
2021/07/22 11:39:49;;;;;;;7.60;6.13;;;;;;;31.56;39.99;98961.66;4965137;28;103366;-65
2021/07/22 11:42:18;;;;;;;8.00;7.03;;;;;;;30.97;40.28;98966.25;4967990;28;104202;-65
2021/07/22 11:45:02;;;;;;;6.50;5.95;;;;;;;31.78;39.96;98964.56;4964853;28;102722;-64
2021/07/22 11:47:32;;;;;;;7.95;7.15;;;;;;;30.72;40.13;98971.03;4954335;28;102598;-65
2021/07/22 11:50:01;;;;;;;11.27;7.32;;;;;;;30.50;41.76;98961.72;4967005;28;103612;-65
2021/07/22 11:52:30;;;;;;;8.02;7.22;;;;;;;29.29;44.95;98974.47;4965463;28;103110;-65
2021/07/22 11:55:09;;;;;;;10.52;6.72;;;;;;;30.24;42.44;98962.91;4968460;28;102559;-65
2021/07/22 11:57:40;;;;;;;7.10;6.38;;;;;;;31.28;41.35;98964.25;4966431;28;102740;-65
2021/07/22 12:00:20;;;;;;;8.52;7.13;;;;;;;30.64;40.93;98956.91;4968911;28;103334;-66
2021/07/22 12:02:54;;;;;;;6.10;5.35;;;;;;;31.92;38.58;98949.56;4967688;28;104403;-65
2021/07/22 12:05:23;;;;;;;6.88;6.18;;;;;;;29.68;42.46;98957.72;4967116;28;103061;-65
2021/07/22 12:07:52;;;;;;;12.55;7.32;;;;;;;30.58;41.48;98941.47;4965644;28;102924;-65
2021/07/22 12:10:26;;;;;;;7.32;6.57;;;;;;;31.09;41.64;98944.44;4964740;28;104350;-65
2021/07/22 12:13:00;;;;;;;7.93;7.13;;;;;;;30.97;41.15;98943.59;4970669;28;103701;-65
2021/07/22 12:15:28;;;;;;;8.05;7.35;;;;;;;31.45;41.53;98932.44;4952808;28;103122;-65
2021/07/22 12:18:00;;;;;;;7.63;7.03;;;;;;;31.90;39.34;98921.69;4955161;28;102750;-65
2021/07/22 12:20:29;;;;;;;10.23;7.32;;;;;;;30.74;41.57;98935.34;4960729;28;104628;-65
2021/07/22 12:22:57;;;;;;;7.65;6.82;;;;;;;31.41;41.38;98932.06;4962501;28;103447;-65
2021/07/22 12:25:27;;;;;;;10.07;7.95;;;;;;;31.38;39.12;98927.09;4963654;28;102573;-65
2021/07/22 12:27:56;;;;;;;8.63;7.72;;;;;;;30.90;41.01;98918.31;4939678;28;102733;-65
2021/07/22 12:30:30;;;;;;;8.70;7.90;;;;;;;31.20;40.41;98920.94;4965587;28;103295;-66
2021/07/22 12:33:00;;;;;;;12.40;7.53;;;;;;;30.47;42.48;98923.19;4958455;28;103094;-65
2021/07/22 12:35:29;;;;;;;7.97;6.68;;;;;;;30.19;42.93;98921.91;4953950;28;102735;-64
2021/07/22 12:38:02;;;;;;;8.30;7.38;;;;;;;29.09;43.73;98920.22;4964106;28;102668;-66
2021/07/22 12:40:39;;;;;;;11.32;7.72;;;;;;;28.99;44.71;98914.47;4960029;28;103434;-66
2021/07/22 12:44:51;;;;;;;9.57;8.25;;;;;;;29.23;43.08;98910.91;5118296;27;102976;-65
2021/07/22 12:47:31;;;;;;;10.02;8.23;;;;;;;28.72;43.79;98907.56;5097986;27;102657;-65
2021/07/22 12:50:01;;;;;;;11.27;7.90;;;;;;;29.61;43.38;98901.69;5101524;27;103377;-65
2021/07/22 12:52:30;;;;;;;12.18;7.95;;;;;;;29.48;42.80;98902.66;4898826;27;103336;-65
2021/07/22 12:54:59;;;;;;;10.63;7.97;;;;;;;30.09;42.84;98888.91;5036089;27;102624;-65
2021/07/22 12:57:38;;;;;;;12.23;7.82;;;;;;;29.63;43.09;98892.22;5022254;27;102842;-66
2021/07/22 13:00:11;;;;;;;8.88;7.97;;;;;;;29.47;42.81;98894.75;5041224;27;104471;-65
2021/07/22 13:02:52;;;;;;;8.38;7.57;;;;;;;30.30;42.34;98884.84;5041087;27;103245;-65
2021/07/22 13:05:20;;;;;;;11.38;7.72;;;;;;;29.39;43.11;98893.13;5040053;27;102791;-65
2021/07/22 13:07:49;;;;;;;8.63;7.72;;;;;;;29.14;45.00;98890.44;5037301;27;102788;-65
2021/07/22 13:10:17;;;;;;;8.70;7.78;;;;;;;29.53;44.23;98883.75;5034975;27;103837;-66
2021/07/22 13:12:45;;;;;;;9.27;8.30;;;;;;;29.14;43.55;98890.44;5033453;27;104435;-67
2021/07/22 13:15:16;;;;;;;8.65;7.88;;;;;;;30.71;40.70;98884.03;5038428;27;102592;-66
2021/07/22 13:17:51;;;;;;;10.85;7.72;;;;;;;29.05;43.66;98885.53;5036316;27;103243;-66
2021/07/22 13:20:19;;;;;;;9.73;8.07;;;;;;;28.75;44.77;98879.94;5037262;27;103369;-66
2021/07/22 13:22:48;;;;;;;7.72;6.97;;;;;;;29.31;44.73;98875.22;5035840;27;103439;-66
2021/07/22 13:25:17;;;;;;;10.05;8.25;;;;;;;29.26;42.84;98869.63;5034461;27;102645;-66
2021/07/22 13:27:45;;;;;;;8.73;7.85;;;;;;;29.46;43.09;98876.75;5035646;27;102782;-66
2021/07/22 13:30:16;;;;;;;9.55;7.63;;;;;;;28.98;42.45;98877.44;5029190;27;103777;-66
2021/07/22 13:32:44;;;;;;;7.47;6.88;;;;;;;30.11;41.11;98866.91;5030840;27;103340;-66
2021/07/22 13:35:13;;;;;;;7.85;7.15;;;;;;;30.59;41.07;98867.66;5036863;27;102741;-65
2021/07/22 13:37:42;;;;;;;8.25;7.45;;;;;;;29.44;42.38;98863.38;5037029;27;102790;-65
2021/07/22 13:40:12;;;;;;;8.85;7.45;;;;;;;29.66;42.45;98867.28;5035812;27;103338;-66
2021/07/22 13:42:41;;;;;;;8.93;8.13;;;;;;;29.06;44.07;98868.13;5033651;27;103184;-66
2021/07/22 13:45:10;;;;;;;8.50;7.70;;;;;;;28.66;45.06;98859.56;5033491;27;102628;-65
2021/07/22 13:47:39;;;;;;;8.00;7.30;;;;;;;29.10;43.96;98853.88;5034626;27;102776;-66
2021/07/22 13:50:08;;;;;;;12.07;7.82;;;;;;;29.37;43.48;98856.31;5035545;27;104455;-64
2021/07/22 13:52:37;;;;;;;10.98;7.72;;;;;;;28.89;44.55;98857.03;5034765;27;104291;-64
2021/07/22 13:55:07;;;;;;;11.43;7.40;;;;;;;28.93;44.31;98854.69;5020012;27;102847;-64
2021/07/22 13:57:35;;;;;;;9.30;8.40;;;;;;;28.64;44.47;98850.78;5023484;28;102665;-65
2021/07/22 14:00:04;;;;;;;8.85;7.75;;;;;;;28.71;45.75;98846.13;5023462;28;105352;-65
2021/07/22 14:02:33;;;;;;;9.02;8.10;;;;;;;29.41;42.22;98842.06;5024961;28;104233;-65
2021/07/22 14:05:03;;;;;;;9.27;8.18;;;;;;;29.33;41.71;98836.94;5026257;28;102705;-64
2021/07/22 14:07:32;;;;;;;10.57;7.80;;;;;;;28.89;42.29;98837.97;5022902;28;102657;-65
2021/07/22 14:10:00;;;;;;;9.32;8.43;;;;;;;28.36;43.20;98836.75;5025232;28;106782;-65
2021/07/22 14:12:28;;;;;;;9.13;8.20;;;;;;;29.28;43.39;98823.97;5023960;28;103083;-65
2021/07/22 14:14:57;;;;;;;8.63;7.85;;;;;;;29.42;41.70;98826.56;5024009;28;102616;-65
2021/07/22 14:17:25;;;;;;;9.63;8.48;;;;;;;29.10;42.21;98825.84;5024821;28;104481;-65
2021/07/22 14:19:53;;;;;;;10.18;8.25;;;;;;;28.58;41.95;98824.44;5021264;28;104847;-65
2021/07/22 14:22:23;;;;;;;9.98;8.05;;;;;;;28.73;42.20;98822.25;5022512;28;103203;-65
2021/07/22 14:24:54;;;;;;;10.07;8.00;;;;;;;28.92;42.63;98812.22;5023267;28;102671;-65
2021/07/22 14:27:22;;;;;;;11.32;8.48;;;;;;;28.23;44.25;98820.56;5025195;28;102930;-66
2021/07/22 14:29:51;;;;;;;8.35;7.65;;;;;;;28.49;42.85;98815.75;5017700;28;103524;-66
2021/07/22 14:32:19;;;;;;;7.90;7.20;;;;;;;29.11;41.45;98814.72;5016775;28;104440;-65
2021/07/22 14:34:48;;;;;;;9.52;8.45;;;;;;;28.44;45.18;98817.47;5021783;28;102672;-66
2021/07/22 14:37:20;;;;;;;8.43;7.70;;;;;;;28.75;43.09;98817.41;5021328;27;102884;-65
2021/07/22 14:39:49;;;;;;;7.60;6.97;;;;;;;28.29;43.57;98808.84;5024128;27;103362;-65
2021/07/22 14:42:18;;;;;;;9.10;7.10;;;;;;;28.57;43.30;98814.66;5023315;28;103275;-65
2021/07/22 14:44:47;;;;;;;8.48;7.05;;;;;;;28.62;43.33;98810.22;5024539;28;102580;-65
2021/07/22 14:47:15;;;;;;;9.98;7.47;;;;;;;28.80;42.71;98801.25;5023038;28;102749;-65
2021/07/22 14:49:43;;;;;;;9.35;7.97;;;;;;;28.11;44.22;98809.59;5024259;28;103343;-65
2021/07/22 14:52:11;;;;;;;8.10;7.35;;;;;;;28.23;43.28;98804.28;5024620;28;103142;-65
2021/07/22 14:54:39;;;;;;;9.27;8.38;;;;;;;28.11;45.66;98802.28;5017806;28;102717;-65
2021/07/22 14:57:09;;;;;;;8.77;8.02;;;;;;;28.23;43.33;98807.00;5021394;28;103082;-65
2021/07/22 14:59:37;;;;;;;8.27;7.47;;;;;;;27.88;43.73;98804.69;5020870;28;104356;-65
2021/07/22 15:02:05;;;;;;;8.15;7.30;;;;;;;28.17;44.47;98801.41;5024244;28;103166;-65
2021/07/22 15:04:33;;;;;;;8.07;7.30;;;;;;;28.16;44.43;98805.16;5022136;28;102672;-65
2021/07/22 15:07:01;;;;;;;8.13;7.30;;;;;;;28.28;44.89;98801.72;5022832;27;102762;-65
2021/07/22 15:09:29;;;;;;;8.48;7.78;;;;;;;28.08;45.13;98802.72;5021978;28;103469;-65
2021/07/22 15:11:59;;;;;;;8.13;7.32;;;;;;;28.09;43.75;98798.97;5024242;27;103400;-65